GLO1015 SBRJ-SBSP
Flight info
| Callsign | GLO1015 |
|---|---|
| Flight time | 0h 43m |
| Altitude | 30000 |
| Route | NAXOP UZ45 IBDAL |
| Aircraft | B38M/M-SDE1FGHILORVWXY/HB1 |
Departure
| Time | 2026-05-05 14:10 |
|---|---|
| Airport | Santos Dumont Airport (SBRJ) |
Arrival
| Time | 2026-05-05 14:53 |
|---|---|
| Airport | Congonhas–Deputado Freitas Nobre Airport (SBSP) |
| Time | Latitude | Longitude | Altitude | Speed | Heading |
|---|---|---|---|---|---|
| 2026-05-05 13:39 | -22.91209 | -43.16579 | 24 ft | 0 kts | 267° |
| 2026-05-05 13:59 | -22.91208 | -43.16570 | 26 ft | 4 kts | 267° |
| 2026-05-05 13:59 | -22.91207 | -43.16541 | 28 ft | 4 kts | 258° |
| 2026-05-05 14:00 | -22.91175 | -43.16516 | 25 ft | 0 kts | 176° |
| 2026-05-05 14:04 | -22.91181 | -43.16515 | 46 ft | 2 kts | 176° |
| 2026-05-05 14:05 | -22.91208 | -43.16513 | 26 ft | 6 kts | 176° |
| 2026-05-05 14:05 | -22.91259 | -43.16510 | 28 ft | 9 kts | 176° |
| 2026-05-05 14:05 | -22.91331 | -43.16506 | 25 ft | 12 kts | 177° |
| 2026-05-05 14:05 | -22.91408 | -43.16491 | 27 ft | 9 kts | 152° |
| 2026-05-05 14:06 | -22.91456 | -43.16447 | 24 ft | 11 kts | 136° |
| 2026-05-05 14:06 | -22.91519 | -43.16383 | 23 ft | 13 kts | 137° |
| 2026-05-05 14:06 | -22.91587 | -43.16333 | 24 ft | 8 kts | 172° |
| 2026-05-05 14:06 | -22.91640 | -43.16319 | 27 ft | 7 kts | 146° |
| 2026-05-05 14:07 | -22.91672 | -43.16276 | 25 ft | 7 kts | 112° |
| 2026-05-05 14:07 | -22.91656 | -43.16245 | 24 ft | 6 kts | 14° |
| 2026-05-05 14:07 | -22.91620 | -43.16245 | 22 ft | 0 kts | 356° |
| 2026-05-05 14:08 | -22.91629 | -43.16245 | 23 ft | 2 kts | 354° |
| 2026-05-05 14:08 | -22.91616 | -43.16246 | 22 ft | 0 kts | 357° |
| 2026-05-05 14:08 | -22.91612 | -43.16247 | 22 ft | 0 kts | 357° |
| 2026-05-05 14:08 | -22.91614 | -43.16246 | 22 ft | 0 kts | 358° |
| 2026-05-05 14:09 | -22.91534 | -43.16251 | 24 ft | 48 kts | 356° |
| 2026-05-05 14:09 | -22.90875 | -43.16294 | 26 ft | 138 kts | 356° |
| 2026-05-05 14:10 | -22.89747 | -43.16372 | 469 ft | 175 kts | 356° |
| 2026-05-05 14:10 | -22.88505 | -43.16585 | 1264 ft | 191 kts | 343° |
| 2026-05-05 14:10 | -22.87124 | -43.16985 | 1888 ft | 219 kts | 349° |
| 2026-05-05 14:10 | -22.85531 | -43.16866 | 2433 ft | 244 kts | 19° |
| 2026-05-05 14:11 | -22.84170 | -43.15764 | 3323 ft | 249 kts | 51° |
| 2026-05-05 14:11 | -22.83370 | -43.14000 | 3619 ft | 283 kts | 75° |
| 2026-05-05 14:11 | -22.83298 | -43.11828 | 4247 ft | 290 kts | 102° |
| 2026-05-05 14:11 | -22.84017 | -43.09821 | 5287 ft | 284 kts | 121° |
| 2026-05-05 14:12 | -22.85083 | -43.08041 | 6270 ft | 278 kts | 125° |
| 2026-05-05 14:12 | -22.86138 | -43.06317 | 7279 ft | 273 kts | 125° |
| 2026-05-05 14:12 | -22.87273 | -43.04642 | 7860 ft | 280 kts | 134° |
| 2026-05-05 14:12 | -22.88824 | -43.03434 | 8021 ft | 275 kts | 161° |
| 2026-05-05 14:13 | -22.90705 | -43.03254 | 8135 ft | 274 kts | 184° |
| 2026-05-05 14:13 | -22.92621 | -43.03273 | 8178 ft | 276 kts | 181° |
| 2026-05-05 14:13 | -22.94429 | -43.03789 | 8180 ft | 278 kts | 213° |
| 2026-05-05 14:13 | -22.95863 | -43.05207 | 8796 ft | 280 kts | 221° |
| 2026-05-05 14:14 | -22.97323 | -43.06603 | 10018 ft | 281 kts | 219° |
| 2026-05-05 14:14 | -22.98820 | -43.08012 | 10916 ft | 292 kts | 219° |
| 2026-05-05 14:14 | -23.00415 | -43.09473 | 11618 ft | 307 kts | 218° |
| 2026-05-05 14:14 | -23.02101 | -43.10975 | 12427 ft | 317 kts | 218° |
| 2026-05-05 14:15 | -23.03811 | -43.12501 | 13410 ft | 321 kts | 218° |
| 2026-05-05 14:15 | -23.05552 | -43.14057 | 14274 ft | 327 kts | 218° |
| 2026-05-05 14:15 | -23.07303 | -43.15609 | 15087 ft | 331 kts | 217° |
| 2026-05-05 14:15 | -23.09111 | -43.17181 | 15930 ft | 335 kts | 218° |
| 2026-05-05 14:16 | -23.10941 | -43.18773 | 16745 ft | 339 kts | 218° |
| 2026-05-05 14:16 | -23.12789 | -43.20382 | 17548 ft | 343 kts | 218° |
| 2026-05-05 14:16 | -23.14658 | -43.22010 | 18342 ft | 347 kts | 218° |
| 2026-05-05 14:16 | -23.16549 | -43.23658 | 19028 ft | 350 kts | 218° |
| 2026-05-05 14:17 | -23.18452 | -43.25317 | 19719 ft | 353 kts | 218° |
| 2026-05-05 14:17 | -23.20376 | -43.26994 | 20389 ft | 356 kts | 217° |
| 2026-05-05 14:17 | -23.22316 | -43.28686 | 21052 ft | 359 kts | 217° |
| 2026-05-05 14:17 | -23.24275 | -43.30396 | 21694 ft | 363 kts | 217° |
| 2026-05-05 14:18 | -23.26225 | -43.32099 | 22322 ft | 366 kts | 217° |
| 2026-05-05 14:18 | -23.28221 | -43.33843 | 22954 ft | 370 kts | 217° |
| 2026-05-05 14:18 | -23.30234 | -43.35601 | 23587 ft | 373 kts | 217° |
| 2026-05-05 14:18 | -23.32201 | -43.37466 | 24112 ft | 379 kts | 226° |
| 2026-05-05 14:19 | -23.33634 | -43.39881 | 24682 ft | 385 kts | 244° |
| 2026-05-05 14:19 | -23.34450 | -43.42669 | 25232 ft | 389 kts | 252° |
| 2026-05-05 14:19 | -23.35168 | -43.45515 | 25723 ft | 392 kts | 252° |
| 2026-05-05 14:19 | -23.35872 | -43.48391 | 26228 ft | 394 kts | 253° |
| 2026-05-05 14:20 | -23.36565 | -43.51284 | 26745 ft | 397 kts | 253° |
| 2026-05-05 14:20 | -23.37244 | -43.54161 | 27243 ft | 399 kts | 253° |
| 2026-05-05 14:20 | -23.37933 | -43.57095 | 27754 ft | 401 kts | 254° |
| 2026-05-05 14:20 | -23.38622 | -43.60042 | 28248 ft | 403 kts | 254° |
| 2026-05-05 14:21 | -23.39313 | -43.62998 | 28854 ft | 402 kts | 254° |
| 2026-05-05 14:21 | -23.39999 | -43.65938 | 29501 ft | 400 kts | 254° |
| 2026-05-05 14:21 | -23.40683 | -43.68866 | 30046 ft | 400 kts | 255° |
| 2026-05-05 14:21 | -23.41365 | -43.71794 | 30207 ft | 397 kts | 255° |
| 2026-05-05 14:22 | -23.42712 | -43.77579 | 30201 ft | 393 kts | 255° |
| 2026-05-05 14:22 | -23.44042 | -43.83305 | 30188 ft | 392 kts | 255° |
| 2026-05-05 14:23 | -23.45378 | -43.89064 | 30193 ft | 392 kts | 255° |
| 2026-05-05 14:23 | -23.46711 | -43.94824 | 30190 ft | 392 kts | 255° |
| 2026-05-05 14:24 | -23.48044 | -44.00591 | 30186 ft | 392 kts | 255° |
| 2026-05-05 14:24 | -23.49365 | -44.06320 | 30183 ft | 393 kts | 255° |
| 2026-05-05 14:25 | -23.50694 | -44.12093 | 30186 ft | 393 kts | 255° |
| 2026-05-05 14:25 | -23.52022 | -44.17868 | 30187 ft | 393 kts | 255° |
| 2026-05-05 14:26 | -23.53348 | -44.23642 | 30180 ft | 393 kts | 255° |
| 2026-05-05 14:26 | -23.54663 | -44.29378 | 30186 ft | 393 kts | 255° |
| 2026-05-05 14:27 | -23.55983 | -44.35150 | 30188 ft | 393 kts | 255° |
| 2026-05-05 14:27 | -23.57302 | -44.40926 | 30187 ft | 393 kts | 255° |
| 2026-05-05 14:28 | -23.58620 | -44.46707 | 30186 ft | 393 kts | 255° |
| 2026-05-05 14:28 | -23.59926 | -44.52446 | 30189 ft | 393 kts | 255° |
| 2026-05-05 14:29 | -23.61238 | -44.58224 | 30192 ft | 392 kts | 255° |
| 2026-05-05 14:29 | -23.62544 | -44.63986 | 30182 ft | 391 kts | 255° |
| 2026-05-05 14:30 | -23.63847 | -44.69745 | 30189 ft | 391 kts | 255° |
| 2026-05-05 14:30 | -23.65140 | -44.75466 | 30186 ft | 391 kts | 255° |
| 2026-05-05 14:31 | -23.66438 | -44.81227 | 30178 ft | 391 kts | 255° |
| 2026-05-05 14:31 | -23.67085 | -44.84097 | 29684 ft | 390 kts | 255° |
| 2026-05-05 14:31 | -23.67732 | -44.86974 | 29052 ft | 391 kts | 255° |
| 2026-05-05 14:32 | -23.68378 | -44.89849 | 28464 ft | 390 kts | 255° |
| 2026-05-05 14:32 | -23.69026 | -44.92734 | 27743 ft | 394 kts | 254° |
| 2026-05-05 14:32 | -23.69681 | -44.95652 | 27027 ft | 397 kts | 254° |
| 2026-05-05 14:32 | -23.70340 | -44.98592 | 26373 ft | 399 kts | 254° |
| 2026-05-05 14:33 | -23.70988 | -45.01488 | 25870 ft | 397 kts | 254° |
| 2026-05-05 14:33 | -23.71642 | -45.04412 | 25357 ft | 396 kts | 254° |
| 2026-05-05 14:33 | -23.72295 | -45.07332 | 24828 ft | 396 kts | 253° |
| 2026-05-05 14:33 | -23.72945 | -45.10247 | 24321 ft | 395 kts | 253° |
| 2026-05-05 14:34 | -23.73595 | -45.13160 | 23812 ft | 395 kts | 253° |
| 2026-05-05 14:34 | -23.74243 | -45.16066 | 23229 ft | 394 kts | 253° |
| 2026-05-05 14:34 | -23.74888 | -45.18966 | 22704 ft | 392 kts | 253° |
| 2026-05-05 14:34 | -23.75530 | -45.21851 | 22205 ft | 390 kts | 254° |
| 2026-05-05 14:35 | -23.76156 | -45.24681 | 21711 ft | 388 kts | 254° |
| 2026-05-05 14:35 | -23.76787 | -45.27534 | 21243 ft | 385 kts | 254° |
| 2026-05-05 14:35 | -23.77412 | -45.30364 | 20816 ft | 382 kts | 254° |
| 2026-05-05 14:35 | -23.78033 | -45.33176 | 20363 ft | 380 kts | 255° |
| 2026-05-05 14:36 | -23.78651 | -45.35976 | 19929 ft | 378 kts | 255° |
| 2026-05-05 14:36 | -23.79265 | -45.38764 | 19474 ft | 377 kts | 255° |
| 2026-05-05 14:36 | -23.79767 | -45.41559 | 19088 ft | 375 kts | 264° |
| 2026-05-05 14:36 | -23.79905 | -45.44381 | 18800 ft | 371 kts | 265° |
| 2026-05-05 14:37 | -23.80050 | -45.47165 | 18509 ft | 372 kts | 265° |
| 2026-05-05 14:37 | -23.80196 | -45.49979 | 18178 ft | 371 kts | 265° |
| 2026-05-05 14:37 | -23.80342 | -45.52788 | 17862 ft | 369 kts | 265° |
| 2026-05-05 14:37 | -23.80485 | -45.55571 | 17556 ft | 368 kts | 265° |
| 2026-05-05 14:38 | -23.80628 | -45.58353 | 17253 ft | 366 kts | 265° |
| 2026-05-05 14:38 | -23.80701 | -45.59772 | 17097 ft | 365 kts | 265° |
| 2026-05-05 14:38 | -23.80842 | -45.62533 | 16798 ft | 364 kts | 265° |
| 2026-05-05 14:38 | -23.80982 | -45.65285 | 16503 ft | 362 kts | 265° |
| 2026-05-05 14:39 | -23.81119 | -45.67982 | 16211 ft | 360 kts | 266° |
| 2026-05-05 14:39 | -23.81257 | -45.70712 | 15918 ft | 359 kts | 266° |
| 2026-05-05 14:39 | -23.81394 | -45.73425 | 15625 ft | 357 kts | 266° |
| 2026-05-05 14:39 | -23.81530 | -45.76126 | 15334 ft | 355 kts | 266° |
| 2026-05-05 14:40 | -23.81664 | -45.78814 | 15050 ft | 354 kts | 266° |
| 2026-05-05 14:40 | -23.81798 | -45.81491 | 14756 ft | 352 kts | 266° |
| 2026-05-05 14:40 | -23.81930 | -45.84158 | 14469 ft | 351 kts | 266° |
| 2026-05-05 14:40 | -23.82062 | -45.86818 | 14189 ft | 350 kts | 266° |
| 2026-05-05 14:41 | -23.82192 | -45.89462 | 13889 ft | 348 kts | 266° |
| 2026-05-05 14:41 | -23.82320 | -45.92062 | 13576 ft | 346 kts | 266° |
| 2026-05-05 14:41 | -23.82449 | -45.94679 | 13285 ft | 345 kts | 266° |
| 2026-05-05 14:41 | -23.82576 | -45.97287 | 13007 ft | 343 kts | 266° |
| 2026-05-05 14:42 | -23.82702 | -45.99882 | 12717 ft | 341 kts | 266° |
| 2026-05-05 14:42 | -23.82828 | -46.02465 | 12445 ft | 340 kts | 266° |
| 2026-05-05 14:42 | -23.82952 | -46.05029 | 12169 ft | 336 kts | 266° |
| 2026-05-05 14:42 | -23.83073 | -46.07552 | 11893 ft | 330 kts | 266° |
| 2026-05-05 14:43 | -23.83193 | -46.10029 | 11620 ft | 324 kts | 266° |
| 2026-05-05 14:43 | -23.83309 | -46.12463 | 11371 ft | 318 kts | 266° |
| 2026-05-05 14:43 | -23.83421 | -46.14823 | 11117 ft | 313 kts | 265° |
| 2026-05-05 14:43 | -23.83534 | -46.17181 | 10855 ft | 309 kts | 265° |
| 2026-05-05 14:44 | -23.83644 | -46.19503 | 10604 ft | 304 kts | 266° |
| 2026-05-05 14:44 | -23.83789 | -46.21788 | 10344 ft | 300 kts | 264° |
| 2026-05-05 14:44 | -23.83952 | -46.24045 | 10087 ft | 296 kts | 264° |
| 2026-05-05 14:44 | -23.84108 | -46.26272 | 9817 ft | 292 kts | 264° |
| 2026-05-05 14:45 | -23.84261 | -46.28467 | 9565 ft | 288 kts | 264° |
| 2026-05-05 14:45 | -23.84411 | -46.30628 | 9324 ft | 283 kts | 265° |
| 2026-05-05 14:45 | -23.84555 | -46.32725 | 9093 ft | 277 kts | 264° |
| 2026-05-05 14:45 | -23.84696 | -46.34783 | 8876 ft | 266 kts | 264° |
| 2026-05-05 14:46 | -23.84832 | -46.36753 | 8676 ft | 256 kts | 264° |
| 2026-05-05 14:46 | -23.84962 | -46.38656 | 8480 ft | 246 kts | 264° |
| 2026-05-05 14:46 | -23.85090 | -46.40512 | 8199 ft | 245 kts | 264° |
| 2026-05-05 14:46 | -23.85218 | -46.42377 | 7880 ft | 247 kts | 264° |
| 2026-05-05 14:47 | -23.85321 | -46.44242 | 7603 ft | 245 kts | 271° |
| 2026-05-05 14:47 | -23.84843 | -46.46005 | 7333 ft | 245 kts | 301° |
| 2026-05-05 14:47 | -23.83849 | -46.47498 | 7151 ft | 241 kts | 304° |
| 2026-05-05 14:47 | -23.82883 | -46.48944 | 6970 ft | 236 kts | 305° |
| 2026-05-05 14:48 | -23.81929 | -46.50360 | 6840 ft | 228 kts | 306° |
| 2026-05-05 14:48 | -23.80998 | -46.51733 | 6643 ft | 222 kts | 305° |
| 2026-05-05 14:48 | -23.80042 | -46.53035 | 6411 ft | 217 kts | 312° |
| 2026-05-05 14:48 | -23.78944 | -46.54145 | 6128 ft | 214 kts | 320° |
| 2026-05-05 14:49 | -23.77754 | -46.55099 | 5836 ft | 210 kts | 323° |
| 2026-05-05 14:49 | -23.76555 | -46.55982 | 5567 ft | 206 kts | 325° |
| 2026-05-05 14:49 | -23.75359 | -46.56826 | 5313 ft | 204 kts | 326° |
| 2026-05-05 14:49 | -23.74186 | -46.57643 | 5059 ft | 202 kts | 326° |
| 2026-05-05 14:50 | -23.73021 | -46.58456 | 4812 ft | 192 kts | 327° |
| 2026-05-05 14:50 | -23.71946 | -46.59202 | 4594 ft | 179 kts | 327° |
| 2026-05-05 14:50 | -23.70937 | -46.59903 | 4371 ft | 163 kts | 327° |
| 2026-05-05 14:50 | -23.70037 | -46.60529 | 4164 ft | 148 kts | 327° |
| 2026-05-05 14:51 | -23.69184 | -46.61123 | 3970 ft | 144 kts | 326° |
| 2026-05-05 14:51 | -23.68345 | -46.61705 | 3794 ft | 142 kts | 326° |
| 2026-05-05 14:51 | -23.67511 | -46.62284 | 3600 ft | 143 kts | 327° |
| 2026-05-05 14:51 | -23.66685 | -46.62858 | 3406 ft | 143 kts | 327° |
| 2026-05-05 14:52 | -23.65853 | -46.63434 | 3216 ft | 140 kts | 328° |
| 2026-05-05 14:52 | -23.65043 | -46.64009 | 3034 ft | 139 kts | 329° |
| 2026-05-05 14:52 | -23.64216 | -46.64572 | 2820 ft | 141 kts | 330° |
| 2026-05-05 14:52 | -23.63395 | -46.65144 | 2631 ft | 139 kts | 330° |
| 2026-05-05 14:53 | -23.62715 | -46.65613 | 2609 ft | 82 kts | 328° |
| 2026-05-05 14:53 | -23.62405 | -46.65827 | 2605 ft | 34 kts | 327° |
| 2026-05-05 14:53 | -23.62246 | -46.65939 | 2602 ft | 14 kts | 327° |
| 2026-05-05 14:53 | -23.62201 | -46.66001 | 2601 ft | 9 kts | 269° |
| 2026-05-05 14:54 | -23.62209 | -46.66024 | 2601 ft | 0 kts | 234° |
| 2026-05-05 14:55 | -23.62210 | -46.66025 | 2601 ft | 1 kts | 234° |
| 2026-05-05 14:55 | -23.62214 | -46.66028 | 2602 ft | 1 kts | 218° |
| 2026-05-05 14:55 | -23.62226 | -46.66036 | 2602 ft | 3 kts | 205° |
| 2026-05-05 14:55 | -23.62251 | -46.66037 | 2602 ft | 5 kts | 167° |
| 2026-05-05 14:56 | -23.62288 | -46.66016 | 2602 ft | 8 kts | 148° |
| 2026-05-05 14:56 | -23.62342 | -46.65979 | 2603 ft | 11 kts | 148° |
| 2026-05-05 14:56 | -23.62404 | -46.65936 | 2603 ft | 8 kts | 147° |
| 2026-05-05 14:56 | -23.62419 | -46.65926 | 2603 ft | 3 kts | 148° |
| 2026-05-05 14:57 | -23.62442 | -46.65928 | 2603 ft | 4 kts | 212° |
| 2026-05-05 14:57 | -23.62466 | -46.65962 | 2603 ft | 7 kts | 238° |
| 2026-05-05 14:57 | -23.62473 | -46.65974 | 2603 ft | 3 kts | 238° |
| 2026-05-05 14:57 | -23.62478 | -46.65982 | 2603 ft | 1 kts | 237° |
| 2026-05-05 14:58 | -23.62479 | -46.65984 | 2603 ft | 0 kts | 238° |